Date,TemperatureHighF,TemperatureAvgF,TemperatureLowF,DewpointHighF,DewpointAvgF,DewpointLowF,HumidityHigh,HumidityAvg,HumidityLow,PressureMaxIn,PressureMinIn,WindSpeedMaxMPH,WindSpeedAvgMPH,GustSpeedMaxMPH,PrecipitationSumIn
2013-1-1,40,37,27,30,23,8,68,59,44,30.08,29.89,9,4,0,0.02
2013-1-2,31,28,23,17,13,6,61,55,41,30.23,30.07,9,4,0,0.00
2013-1-3,28,25,20,18,13,6,75,60,54,30.26,30.09,7,3,0,0.00
2013-1-4,39,33,25,24,22,18,78,65,51,30.09,29.93,10,2,0,0.00
2013-1-5,44,34,24,26,23,21,91,66,46,30.29,29.98,9,2,0,0.00
2013-1-6,46,35,26,36,30,23,98,83,56,30.23,29.94,6,1,0,0.00
2013-1-7,43,33,21,31,26,20,99,77,51,30.34,30.00,7,1,0,0.00
2013-1-8,49,39,21,38,32,20,99,79,52,30.35,30.22,7,2,0,0.00
2013-1-9,50,40,26,42,34,26,99,80,53,30.30,29.99,9,2,0,0.00
2013-1-10,48,41,31,33,27,24,84,57,42,30.43,30.05,10,3,0,0.00
2013-1-11,46,37,24,45,34,23,99,89,70,30.42,30.01,6,2,0,0.22
2013-1-12,46,45,43,46,44,42,99,99,99,30.03,29.94,9,2,0,0.11
2013-1-13,51,46,41,51,46,41,99,98,93,30.03,29.88,4,1,0,0.01
2013-1-14,53,49,37,52,45,31,99,89,57,30.11,29.82,8,3,0,0.01
2013-1-15,40,37,35,36,33,29,99,85,71,30.18,30.05,4,1,0,0.19
2013-1-16,40,37,34,40,36,33,99,99,95,30.08,29.61,4,1,0,0.68
2013-1-17,42,37,32,36,32,21,99,83,60,29.94,29.76,6,2,0,0.00
2013-1-18,33,26,18,27,12,3,92,56,34,30.37,29.87,10,3,0,0.00
2013-1-19,48,39,18,39,29,12,87,68,55,30.30,29.79,11,4,0,0.00
2013-1-20,55,45,32,40,31,16,80,58,36,29.83,29.49,12,4,0,0.00
2013-1-21,34,29,26,29,18,9,99,67,40,29.97,29.65,5,2,0,0.00
2013-1-22,27,22,16,26,8,-2,96,57,40,29.99,29.64,11,4,0,0.00
2013-1-23,19,15,12,2,0,-3,60,49,39,30.07,29.98,10,4,0,0.00
2013-1-24,21,16,7,4,1,-2,78,52,36,30.18,29.99,12,5,0,0.00
2013-1-25,23,20,15,21,8,2,95,61,51,30.25,29.88,10,3,0,0.00
2013-1-26,26,21,16,21,10,4,94,65,44,30.16,29.86,7,4,0,0.00
2013-1-27,33,23,14,13,9,4,78,55,34,30.34,30.17,10,3,0,0.00
2013-1-28,36,27,12,36,23,8,99,86,49,30.32,29.83,3,1,0,0.20
2013-1-29,42,36,30,37,34,30,99,94,77,30.02,29.82,4,1,0,0.00
2013-1-30,58,52,38,57,52,38,99,97,91,29.96,29.31,11,5,0,0.00
2013-1-31,57,46,31,57,35,16,99,67,41,29.53,28.90,13,6,0,0.39
2013-2-1,32,29,25,16,12,6,62,49,39,30.00,29.54,12,5,0,0.00
2013-2-2,31,27,22,24,14,8,95,58,40,30.12,29.90,9,3,0,0.00
2013-2-3,32,27,21,25,20,16,96,77,60,29.89,29.57,5,2,0,0.02
2013-2-4,32,28,24,24,15,10,86,59,45,29.81,29.59,9,4,0,0.00
2013-2-5,31,29,26,30,25,13,98,86,55,29.83,29.73,4,1,0,0.00
2013-2-6,40,32,28,30,25,7,99,75,37,30.17,29.73,7,2,0,0.10
2013-2-7,34,28,23,21,12,4,70,50,35,30.35,30.17,6,2,0,0.00
2013-2-8,36,33,29,34,31,21,99,93,68,30.22,29.29,7,3,0,0.36
2013-2-9,29,24,20,28,19,9,99,80,55,30.09,29.38,0,0,0,0.00
2013-2-10,33,22,12,22,14,9,97,72,45,30.28,30.09,0,0,0,0.07
2013-2-11,48,37,17,47,37,16,99,99,97,30.20,29.48,8,2,0,2.44
2013-2-12,44,39,30,39,32,27,99,77,55,29.76,29.50,10,3,0,0.01
2013-2-13,43,32,23,29,26,22,99,81,49,29.75,29.59,8,1,0,0.00
2013-2-14,44,36,30,34,29,22,99,81,42,29.84,29.52,5,1,0,0.12
2013-2-15,49,42,33,41,38,32,99,87,67,29.87,29.76,12,3,0,0.00
2013-2-16,39,34,30,38,32,28,99,91,77,29.76,29.44,6,2,0,0.00
2013-2-17,30,26,19,28,13,4,99,61,34,29.61,29.28,14,6,0,0.00
2013-2-18,32,25,19,15,10,6,60,53,44,30.05,29.62,17,5,0,0.00
2013-2-19,50,39,21,46,34,12,99,81,50,30.05,29.46,7,2,0,0.42
2013-2-20,39,32,26,39,20,12,99,61,47,29.74,29.47,16,5,0,0.00
2013-2-21,35,28,25,18,16,14,69,59,48,30.06,29.70,13,6,0,0.00
2013-2-22,41,32,24,28,24,18,86,72,55,30.21,30.06,7,2,0,0.00
2013-2-23,41,37,29,38,35,26,99,92,83,30.14,29.61,10,3,0,0.10
2013-2-24,40,37,32,40,36,32,99,99,95,29.74,29.50,7,3,0,0.17
2013-2-25,45,36,28,32,30,28,99,81,58,29.99,29.74,5,2,0,0.01
2013-2-26,45,40,36,37,34,28,99,80,61,30.15,29.85,6,3,0,0.10
2013-2-27,47,43,38,47,42,37,99,98,90,29.83,29.36,11,4,0,1.56
2013-2-28,48,40,33,43,38,33,99,96,79,29.46,29.35,4,1,0,0.06
2013-3-1,46,40,33,38,34,30,99,80,57,29.54,29.36,8,3,0,0.01
2013-3-2,40,37,34,31,28,26,80,71,61,29.56,29.48,6,3,0,0.00
2013-3-3,38,34,31,28,25,23,83,71,56,29.51,29.42,7,4,0,0.00
2013-3-4,38,31,29,25,23,22,76,71,59,29.55,29.50,10,5,0,0.00
2013-7-12,77,71,67,71,66,-100,97,88,82,30.10,29.95,6,-14,0,0.00
2013-7-13,75,71,67,75,71,66,99,98,94,30.22,30.10,4,1,0,0.80
2013-7-14,88,78,72,80,76,72,99,92,77,30.22,30.10,3,0,0,0.07
2013-7-15,91,80,73,82,76,72,99,91,70,30.11,29.96,3,0,0,0.30
2013-7-16,91,80,71,79,74,71,99,86,60,30.01,29.95,3,0,0,0.00
2013-7-17,92,78,69,79,74,69,99,86,59,30.03,29.91,3,0,0,0.00
2013-7-18,94,83,74,82,77,72,97,83,62,29.91,29.80,3,0,0,0.00
2013-7-19,97,82,76,84,78,75,98,88,65,29.82,29.65,5,1,0,0.00
2013-7-20,91,82,76,81,77,75,96,87,70,29.72,29.58,5,1,0,0.00
2013-7-21,85,76,70,75,71,68,97,84,59,29.88,29.72,4,0,0,0.00
2013-7-22,81,74,70,76,73,69,99,96,85,29.87,29.77,3,0,0,0.16
2013-7-23,84,80,75,78,77,73,99,91,81,29.55,29.47,3,2,0,0.12
2013-7-24,86,80,72,78,74,64,99,84,70,29.84,29.60,3,1,0,0.02
2013-7-25,71,65,60,65,62,59,99,89,77,29.99,29.84,4,1,0,0.14
2013-7-26,70,67,64,68,66,63,99,97,94,29.95,29.91,5,3,0,0.23
2013-7-27,83,75,69,76,71,69,99,89,75,30.02,29.91,3,1,0,0.07
2013-7-28,82,73,68,74,71,68,99,92,74,29.95,29.89,3,0,0,0.00
2013-7-29,85,74,68,78,72,67,99,92,73,30.00,29.89,3,0,0,0.01
2013-7-30,80,70,61,66,64,61,99,80,56,30.07,30.00,5,1,0,0.00
2013-7-31,82,69,58,67,63,58,99,83,55,30.09,29.98,2,0,0,0.00
2013-8-1,81,69,63,72,66,63,99,93,68,29.99,29.80,3,0,0,0.10
2013-8-2,82,73,66,73,69,65,99,89,61,29.84,29.72,5,1,0,0.15
2013-8-3,76,70,66,72,68,65,99,95,81,29.85,29.76,2,0,0,0.01
2013-8-4,80,70,60,67,63,59,99,83,59,29.86,29.75,4,1,0,0.00
2013-8-5,76,67,58,60,57,51,96,72,44,30.00,29.86,5,1,0,0.00
2013-8-6,82,67,55,66,60,55,99,82,49,30.09,29.99,3,0,0,0.01
2013-8-7,80,67,54,67,62,54,99,85,58,30.13,30.05,4,1,0,0.00
2013-8-8,81,74,69,74,71,67,99,91,77,30.06,29.98,4,2,0,0.00
2013-8-9,81,74,72,77,73,71,99,99,86,29.99,29.74,5,2,0,0.02
2013-8-10,83,74,67,73,69,65,99,84,59,29.97,29.75,4,1,0,0.00
2013-8-11,80,68,59,65,60,54,96,76,46,30.05,29.96,3,0,0,0.00
2013-8-12,74,70,64,73,69,64,99,99,94,29.99,29.87,0,0,0,0.20
2013-8-13,71,67,64,71,67,64,99,99,99,29.88,29.62,4,0,0,0.66
2013-8-14,73,66,61,67,60,56,99,83,59,29.94,29.64,5,1,0,0.00
2013-8-15,77,66,57,63,57,52,99,76,45,30.08,29.95,3,1,0,0.00
2013-8-16,80,68,58,68,61,55,99,82,47,30.16,30.06,4,0,0,0.00
2013-8-17,81,67,56,66,60,55,99,81,42,30.22,30.15,3,0,0,0.00
2013-8-18,76,65,57,68,62,57,99,91,67,30.22,30.06,3,0,0,0.03
2013-8-19,79,68,59,71,65,58,99,91,67,30.06,29.94,3,0,0,0.00
2013-8-20,84,72,64,71,66,63,99,84,54,30.07,29.96,4,1,0,0.00
2013-8-21,86,74,62,75,68,62,99,84,48,30.10,30.00,2,0,0,0.00
2013-8-22,82,73,68,76,72,68,99,96,79,30.01,29.80,4,1,0,0.00
2013-8-23,81,72,62,70,66,61,99,84,53,30.04,29.78,4,1,0,0.00
2013-8-24,78,66,53,62,58,52,99,76,48,30.30,30.04,3,1,0,0.00
2013-8-25,82,66,50,67,58,50,99,78,42,30.33,30.17,4,1,0,0.00
2013-8-26,78,70,66,70,66,60,99,86,72,30.17,29.85,4,1,0,0.45
2013-8-27,77,70,66,75,70,66,99,98,90,29.85,29.74,3,0,0,1.45
2013-8-28,86,72,63,78,70,63,99,94,75,29.85,29.79,3,0,0,0.00
2013-8-29,76,69,64,70,67,62,99,94,81,29.97,29.84,3,1,0,0.00
2013-8-30,79,69,60,74,67,60,99,94,82,29.97,29.81,3,1,0,0.00
2013-8-31,79,73,70,75,72,70,99,96,87,29.81,29.76,4,2,0,0.00
2013-9-1,78,74,72,77,73,71,99,99,96,29.83,29.77,3,1,0,0.15
2013-9-2,78,74,71,78,73,70,99,99,96,29.79,29.65,2,0,0,0.17
2013-9-3,76,70,63,75,69,63,99,99,99,29.79,29.64,6,0,0,3.91
2013-9-4,79,67,59,67,62,59,99,88,59,29.91,29.78,5,1,0,0.01
2013-9-5,75,67,57,69,61,50,99,82,55,30.07,29.85,4,1,0,0.00
2013-9-6,70,60,51,55,51,45,99,75,44,30.20,30.07,4,1,0,0.00
2013-9-7,74,62,50,60,55,50,99,81,52,30.08,29.85,4,0,0,0.00
2013-9-8,79,69,60,68,60,46,97,76,54,30.01,29.73,3,1,0,0.00
2013-9-9,71,60,50,56,51,46,97,74,51,30.20,30.02,3,0,0,0.00
2013-9-10,76,68,55,72,66,54,99,96,87,30.14,30.01,5,1,0,0.05
2013-9-11,91,76,70,81,74,70,99,92,70,30.05,29.93,3,1,0,0.00
2013-9-12,80,73,69,76,72,68,99,97,86,29.94,29.61,4,2,0,0.88
2013-9-13,78,69,61,73,67,59,99,94,77,29.72,29.53,4,1,0,0.02
2013-9-14,69,61,55,59,56,53,95,85,68,30.03,29.72,5,1,0,0.01
2013-9-15,69,58,47,58,53,46,99,86,59,30.13,30.03,4,0,0,0.00
2013-9-16,70,61,56,64,58,49,99,89,69,30.15,29.97,3,0,0,0.00
2013-9-17,64,53,43,49,44,41,97,73,51,30.35,30.16,6,2,0,0.00
2013-9-18,72,54,40,56,48,40,99,82,42,30.28,30.12,4,0,0,0.00
2013-9-19,74,60,48,63,55,48,99,86,60,30.12,30.00,3,0,0,0.00
2013-9-20,76,62,51,65,58,51,99,87,60,30.04,29.96,3,0,0,0.00
2013-9-21,70,58,51,69,58,50,99,98,94,29.99,29.67,4,1,0,0.00
2013-9-22,70,64,56,69,60,47,99,88,68,29.81,29.58,177,7,0,0.53
2013-9-23,67,56,50,52,48,45,87,74,54,29.96,29.81,242,34,0,0.00
2013-9-24,65,54,47,53,47,43,93,78,64,29.97,29.79,174,24,0,0.00
2013-9-25,64,52,45,56,49,44,99,92,71,29.89,29.86,1,0,0,0.00
2013-9-26,68,65,63,54,54,52,70,67,62,30.00,29.97,20,3,0,0.00
2013-9-27,66,61,51,58,56,51,99,84,68,30.22,30.14,210,7,0,0.00
2013-9-28,64,50,46,59,49,46,99,97,82,30.28,30.21,2,0,0,0.00
2013-9-29,64,49,44,56,47,44,99,94,74,30.19,30.06,2,0,0,0.00
2013-9-30,68,60,53,59,56,52,99,88,62,30.03,29.93,232,19,0,0.00
2013-10-1,66,57,54,63,57,54,99,98,84,29.94,29.91,112,3,0,0.00
2013-10-5,70,66,62,64,63,62,99,92,80,30.04,29.98,198,18,0,0.00
2013-10-6,65,64,62,65,63,62,99,98,93,30.11,30.03,244,18,0,0.01
2013-10-7,71,67,66,71,67,65,99,99,98,30.02,29.93,153,6,0,0.00
2013-10-8,67,59,52,55,50,48,93,74,55,30.28,30.06,233,29,0,0.00
2013-10-9,65,58,54,53,50,45,86,75,63,30.37,30.27,242,37,0,0.00
2013-10-10,65,60,55,60,57,52,93,90,85,30.26,30.06,213,35,0,0.00
2013-10-11,68,63,59,62,59,50,95,88,69,30.06,29.99,244,43,0,0.00
2013-10-12,68,61,57,60,55,47,91,81,65,30.27,30.04,219,24,0,0.00
2013-10-13,63,56,47,54,52,47,99,87,71,30.36,30.25,192,26,0,0.00
2013-10-14,63,49,38,54,47,38,99,92,70,30.35,30.21,182,11,0,0.00
2013-10-15,68,50,40,58,47,40,99,91,56,30.22,30.10,240,17,0,0.00
2013-10-16,68,59,51,62,57,51,99,94,82,30.10,29.88,232,9,0,0.00
2013-10-17,68,60,56,65,60,56,99,98,88,29.88,29.70,204,16,0,0.00
2013-10-18,67,60,50,64,55,48,99,83,63,29.91,29.61,227,21,0,0.00
2013-10-19,66,53,41,57,48,41,99,86,54,29.96,29.74,193,8,0,0.00
2013-10-20,63,54,41,59,46,39,99,75,49,30.01,29.68,228,26,0,0.00
2013-10-21,65,50,39,52,44,38,99,83,47,30.12,29.98,248,21,0,0.00
2013-10-22,67,55,46,57,50,46,99,85,57,29.98,29.68,207,15,0,0.00
2013-10-23,54,47,42,46,42,38,99,84,57,29.77,29.57,41,1,0,0.03
2013-10-24,55,47,42,43,38,32,98,73,48,29.92,29.67,214,39,0,0.01
2013-10-25,51,46,37,38,35,32,89,66,48,30.19,29.94,228,32,0,0.00
2013-10-26,55,46,34,43,37,32,99,73,49,30.18,29.89,223,33,0,0.00
2013-10-27,57,51,38,41,38,35,88,61,46,30.07,29.82,247,61,0,0.00
2013-10-28,59,43,31,41,36,30,99,78,44,30.29,30.07,174,10,0,0.00
2013-10-29,52,44,32,40,34,31,96,72,47,30.40,30.30,219,18,0,0.00
2013-10-30,61,44,32,51,40,31,98,87,63,30.35,30.18,188,10,0,0.00
2013-10-31,66,63,56,63,61,56,99,93,88,30.17,29.82,232,45,0,0.00
2013-11-1,68,64,60,65,62,58,99,94,85,29.82,29.52,210,30,0,0.00
2013-11-2,66,57,51,59,52,50,98,84,61,29.69,29.55,219,17,0,0.00
2013-11-3,54,47,37,50,38,23,94,71,54,30.38,29.69,244,34,0,0.00
2013-11-4,46,36,29,29,26,23,93,67,45,30.67,30.39,205,12,0,0.00
2013-11-5,53,39,29,39,34,27,96,84,55,30.69,30.52,193,12,0,0.00
2013-11-6,60,48,34,56,45,34,99,90,68,30.51,30.07,234,15,0,0.00
2013-11-7,63,56,44,62,54,37,99,94,76,30.06,29.68,242,39,0,0.32
2013-11-8,50,45,40,37,32,29,77,62,50,30.15,29.86,236,28,0,0.00
2013-11-9,48,43,39,40,32,28,81,66,51,30.26,30.03,238,9,0,0.00
2013-11-10,60,52,46,42,39,34,77,63,42,30.03,29.73,247,33,0,0.00
2013-11-11,53,48,42,42,35,30,69,60,51,30.15,29.93,247,46,0,0.01
2013-11-12,52,38,31,42,29,20,98,71,59,30.23,29.89,199,16,0,0.03
2013-11-13,38,34,30,23,20,16,72,55,43,30.31,30.22,6,2,0,0.00
2013-11-14,50,41,30,28,24,20,71,51,33,30.25,30.11,228,12,0,0.00
2013-11-15,58,47,36,44,36,26,99,68,44,30.23,30.12,228,26,0,0.00
2013-11-16,59,46,38,47,42,37,99,85,59,30.27,30.18,215,18,0,0.00
2013-11-17,63,54,38,60,53,38,99,97,87,30.26,29.79,248,33,0,0.02
2013-11-18,64,58,50,61,51,35,99,79,49,29.79,29.53,237,43,0,0.17
2013-11-19,51,43,34,35,28,23,62,54,46,30.30,29.68,207,17,0,0.00
2013-11-20,44,33,22,23,20,16,89,61,33,30.62,30.30,6,2,0,0.00
2013-11-21,50,36,22,38,30,19,98,83,57,30.63,30.40,241,10,0,0.00
2013-11-22,54,49,42,54,48,39,99,96,89,30.38,29.85,206,18,0,0.05
2013-11-23,52,44,34,52,31,17,98,63,41,29.94,29.83,214,8,0,0.00
2013-11-24,34,27,25,18,8,2,55,45,33,30.29,29.86,15,7,0,0.00
2013-11-25,34,28,22,24,16,10,73,60,52,30.44,30.28,10,3,0,0.00
2013-11-26,52,40,34,52,31,22,99,71,47,30.31,29.88,130,3,0,0.28
2013-11-27,62,52,39,62,50,32,99,96,74,29.87,29.18,233,31,0,1.04
2013-11-28,40,32,27,35,21,15,89,63,45,30.42,29.57,9,4,0,0.00
2013-11-29,37,32,28,26,21,15,85,65,52,30.68,30.42,5,1,0,0.00
2013-11-30,38,29,23,30,21,14,88,71,56,30.72,30.35,5,1,0,0.00
2013-12-1,55,46,36,52,44,31,99,91,80,30.34,29.97,233,14,0,0.03
2013-12-2,47,39,32,42,38,31,99,95,83,29.96,29.85,9,1,0,0.00
2013-12-3,48,39,29,42,37,29,99,93,74,29.94,29.81,4,1,0,0.00
2013-12-4,51,37,28,42,34,28,99,90,62,30.14,29.95,76,1,0,0.00
2013-12-5,60,54,38,58,53,38,99,97,92,30.14,29.93,240,27,0,0.00
2013-12-6,58,48,38,58,48,38,99,98,94,30.09,29.87,210,22,0,0.30
2013-12-7,41,37,32,38,31,22,99,80,61,30.48,30.04,10,4,0,0.19
2013-12-8,34,31,27,29,23,22,86,73,65,30.61,30.43,4,2,0,0.00
2013-12-10,38,34,32,36,30,17,99,88,53,30.06,29.81,10,3,0,0.06
2013-12-11,35,31,27,21,19,17,69,61,53,30.29,30.07,6,3,0,0.00
2013-12-12,31,26,21,22,14,8,73,60,43,30.32,30.18,7,3,0,0.00
2013-12-13,34,32,28,22,19,13,76,60,49,30.35,30.08,8,2,0,0.00
2013-12-14,39,27,22,39,23,15,99,85,61,30.55,29.93,7,2,0,0.54
2013-12-15,54,38,32,54,35,26,99,92,69,29.91,29.38,77,4,0,1.45
2013-12-16,35,29,23,28,17,12,77,61,48,30.22,29.78,9,3,0,0.00
2013-12-17,39,27,15,39,24,12,99,92,68,30.24,29.87,5,2,0,0.48
2013-12-18,34,30,23,26,24,21,94,81,69,30.15,29.85,8,3,0,0.00
2013-12-19,47,38,28,37,29,22,82,71,53,30.16,30.00,6,2,0,0.00
2013-12-20,53,44,32,48,39,29,99,84,60,30.12,29.94,232,9,0,0.00
2013-12-21,58,53,48,56,51,48,98,91,80,29.98,29.86,244,27,0,0.00
2013-12-22,61,58,56,58,56,54,99,94,85,29.94,29.80,264,34,0,0.00
2013-12-23,59,51,40,56,50,38,99,97,90,30.05,29.84,189,18,0,0.48
2013-12-24,39,35,30,38,26,15,95,69,52,30.22,29.99,6,3,0,0.01
2013-12-25,29,23,19,19,12,8,83,63,50,30.50,30.23,9,3,0,0.00
2013-12-26,43,32,24,38,29,19,98,86,78,30.41,30.07,6,1,0,0.00
2013-12-27,39,31,22,27,24,20,99,77,47,30.28,30.19,8,2,0,0.00
2013-12-28,50,41,30,38,32,24,87,72,52,30.25,30.01,10,2,0,0.00
2013-12-29,56,45,40,55,41,32,99,89,65,30.03,29.30,245,8,0,1.37
2013-12-30,45,35,21,41,30,11,99,81,54,30.17,29.58,7,3,0,0.00
2013-12-31,32,24,17,24,14,9,79,65,54,30.23,30.05,10,2,0,0.00
2014-1-1,31,27,23,23,17,13,83,65,55,30.41,30.23,7,2,0,0.00
2014-1-2,32,29,18,32,27,17,98,91,68,30.29,29.65,6,2,0,0.00